sensor_id;sensor_type;location;lat;lon;timestamp;pressure;altitude;pressure_sealevel;temperature
77789;BMP280;66980;44.384;0.512;2023-04-06T00:00:53;101734.53;;;18.87
77789;BMP280;66980;44.384;0.512;2023-04-06T00:03:19;101731.03;;;18.87
77789;BMP280;66980;44.384;0.512;2023-04-06T00:05:47;101738.56;;;18.86
77789;BMP280;66980;44.384;0.512;2023-04-06T00:08:13;101734.78;;;18.84
77789;BMP280;66980;44.384;0.512;2023-04-06T00:10:38;101727.59;;;18.81
77789;BMP280;66980;44.384;0.512;2023-04-06T00:13:05;101727.88;;;18.77
77789;BMP280;66980;44.384;0.512;2023-04-06T00:15:30;101720.88;;;18.76
77789;BMP280;66980;44.384;0.512;2023-04-06T00:17:56;101731.38;;;18.78
77789;BMP280;66980;44.384;0.512;2023-04-06T00:20:23;101742.38;;;18.78
77789;BMP280;66980;44.384;0.512;2023-04-06T00:22:49;101740.16;;;18.76
77789;BMP280;66980;44.384;0.512;2023-04-06T00:25:14;101732.16;;;18.73
77789;BMP280;66980;44.384;0.512;2023-04-06T00:27:40;101717.72;;;18.66
77789;BMP280;66980;44.384;0.512;2023-04-06T00:30:07;101736.44;;;18.74
77789;BMP280;66980;44.384;0.512;2023-04-06T00:32:33;101734.69;;;18.70
77789;BMP280;66980;44.384;0.512;2023-04-06T00:34:59;101729.91;;;18.71
77789;BMP280;66980;44.384;0.512;2023-04-06T00:37:24;101719.97;;;18.68
77789;BMP280;66980;44.384;0.512;2023-04-06T00:39:50;101717.97;;;18.68
77789;BMP280;66980;44.384;0.512;2023-04-06T00:42:17;101712.22;;;18.66
77789;BMP280;66980;44.384;0.512;2023-04-06T00:44:51;101725.22;;;18.66
77789;BMP280;66980;44.384;0.512;2023-04-06T00:47:17;101709.00;;;18.62
77789;BMP280;66980;44.384;0.512;2023-04-06T00:49:42;101704.28;;;18.63
77789;BMP280;66980;44.384;0.512;2023-04-06T00:52:08;101709.00;;;18.62
77789;BMP280;66980;44.384;0.512;2023-04-06T00:54:33;101701.81;;;18.59
77789;BMP280;66980;44.384;0.512;2023-04-06T00:56:59;101700.28;;;18.58
77789;BMP280;66980;44.384;0.512;2023-04-06T00:59:26;101708.06;;;18.60
77789;BMP280;66980;44.384;0.512;2023-04-06T01:01:52;101700.28;;;18.58
77789;BMP280;66980;44.384;0.512;2023-04-06T01:04:17;101694.88;;;18.53
77789;BMP280;66980;44.384;0.512;2023-04-06T01:06:43;101696.34;;;18.54
77789;BMP280;66980;44.384;0.512;2023-04-06T01:09:08;101698.84;;;18.52
77789;BMP280;66980;44.384;0.512;2023-04-06T01:11:35;101698.63;;;18.50
77789;BMP280;66980;44.384;0.512;2023-04-06T01:14:01;101700.88;;;18.51
77789;BMP280;66980;44.384;0.512;2023-04-06T01:16:26;101688.91;;;18.49
77789;BMP280;66980;44.384;0.512;2023-04-06T01:18:52;101687.19;;;18.45
77789;BMP280;66980;44.384;0.512;2023-04-06T01:21:17;101693.41;;;18.46
77789;BMP280;66980;44.384;0.512;2023-04-06T01:23:44;101697.44;;;18.45
77789;BMP280;66980;44.384;0.512;2023-04-06T01:26:10;101697.44;;;18.45
77789;BMP280;66980;44.384;0.512;2023-04-06T01:28:36;101698.25;;;18.40
77789;BMP280;66980;44.384;0.512;2023-04-06T01:31:03;101699.19;;;18.42
77789;BMP280;66980;44.384;0.512;2023-04-06T01:33:28;101688.22;;;18.37
77789;BMP280;66980;44.384;0.512;2023-04-06T01:35:54;101692.50;;;18.38
77789;BMP280;66980;44.384;0.512;2023-04-06T01:38:20;101691.22;;;18.39
77789;BMP280;66980;44.384;0.512;2023-04-06T01:40:46;101688.03;;;18.35
77789;BMP280;66980;44.384;0.512;2023-04-06T01:43:11;101683.25;;;18.35
77789;BMP280;66980;44.384;0.512;2023-04-06T01:45:37;101684.53;;;18.34
77789;BMP280;66980;44.384;0.512;2023-04-06T01:48:03;101679.03;;;18.34
77789;BMP280;66980;44.384;0.512;2023-04-06T01:50:28;101677.84;;;18.30
77789;BMP280;66980;44.384;0.512;2023-04-06T01:52:54;101680.56;;;18.30
77789;BMP280;66980;44.384;0.512;2023-04-06T01:55:20;101677.59;;;18.28
77789;BMP280;66980;44.384;0.512;2023-04-06T01:57:45;101672.81;;;18.28
77789;BMP280;66980;44.384;0.512;2023-04-06T02:00:11;101672.59;;;18.26
77789;BMP280;66980;44.384;0.512;2023-04-06T02:02:37;101677.88;;;18.24
77789;BMP280;66980;44.384;0.512;2023-04-06T02:05:03;101670.06;;;18.28
77789;BMP280;66980;44.384;0.512;2023-04-06T02:07:28;101685.81;;;18.28
77789;BMP280;66980;44.384;0.512;2023-04-06T02:09:55;101687.06;;;18.27
77789;BMP280;66980;44.384;0.512;2023-04-06T02:12:21;101690.59;;;18.27
77789;BMP280;66980;44.384;0.512;2023-04-06T02:14:47;101673.63;;;18.23
77789;BMP280;66980;44.384;0.512;2023-04-06T02:17:12;101671.13;;;18.25
77789;BMP280;66980;44.384;0.512;2023-04-06T02:19:37;101662.41;;;18.21
77789;BMP280;66980;44.384;0.512;2023-04-06T02:22:03;101667.38;;;18.22
77789;BMP280;66980;44.384;0.512;2023-04-06T02:24:28;101662.91;;;18.19
77789;BMP280;66980;44.384;0.512;2023-04-06T02:26:54;101661.41;;;18.18
77789;BMP280;66980;44.384;0.512;2023-04-06T02:29:20;101663.97;;;18.16
77789;BMP280;66980;44.384;0.512;2023-04-06T02:31:45;101667.66;;;18.19
77789;BMP280;66980;44.384;0.512;2023-04-06T02:34:11;101664.72;;;18.17
77789;BMP280;66980;44.384;0.512;2023-04-06T02:36:43;101649.97;;;18.14
77789;BMP280;66980;44.384;0.512;2023-04-06T02:39:09;101655.22;;;18.12
77789;BMP280;66980;44.384;0.512;2023-04-06T02:41:35;101657.91;;;18.18
77789;BMP280;66980;44.384;0.512;2023-04-06T02:44:01;101658.47;;;18.16
77789;BMP280;66980;44.384;0.512;2023-04-06T02:46:26;101653.97;;;18.13
77789;BMP280;66980;44.384;0.512;2023-04-06T02:48:52;101657.22;;;18.12
77789;BMP280;66980;44.384;0.512;2023-04-06T02:51:17;101652.25;;;18.10
77789;BMP280;66980;44.384;0.512;2023-04-06T02:53:43;101649.72;;;18.12
77789;BMP280;66980;44.384;0.512;2023-04-06T02:56:08;101641.78;;;18.09
77789;BMP280;66980;44.384;0.512;2023-04-06T02:58:34;101655.75;;;18.11
77789;BMP280;66980;44.384;0.512;2023-04-06T03:01:00;101655.03;;;18.05
77789;BMP280;66980;44.384;0.512;2023-04-06T03:03:25;101665.22;;;18.10
77789;BMP280;66980;44.384;0.512;2023-04-06T03:05:51;101659.50;;;18.08
77789;BMP280;66980;44.384;0.512;2023-04-06T03:08:16;101651.56;;;18.04
77789;BMP280;66980;44.384;0.512;2023-04-06T03:10:42;101658.03;;;18.07
77789;BMP280;66980;44.384;0.512;2023-04-06T03:13:07;101653.53;;;18.04
77789;BMP280;66980;44.384;0.512;2023-04-06T03:15:33;101658.28;;;18.03
77789;BMP280;66980;44.384;0.512;2023-04-06T03:17:58;101653.53;;;18.04
77789;BMP280;66980;44.384;0.512;2023-04-06T03:20:24;101658.28;;;18.03
77789;BMP280;66980;44.384;0.512;2023-04-06T03:22:50;101657.03;;;18.04
77789;BMP280;66980;44.384;0.512;2023-04-06T03:25:15;101662.06;;;18.00
77789;BMP280;66980;44.384;0.512;2023-04-06T03:27:41;101660.06;;;18.01
77789;BMP280;66980;44.384;0.512;2023-04-06T03:30:06;101656.34;;;17.98
77789;BMP280;66980;44.384;0.512;2023-04-06T03:32:32;101655.84;;;18.00
77789;BMP280;66980;44.384;0.512;2023-04-06T03:34:58;101649.09;;;17.95
77789;BMP280;66980;44.384;0.512;2023-04-06T03:37:23;101648.63;;;17.96
77789;BMP280;66980;44.384;0.512;2023-04-06T03:39:48;101644.38;;;17.95
77789;BMP280;66980;44.384;0.512;2023-04-06T03:42:14;101651.38;;;17.96
77789;BMP280;66980;44.384;0.512;2023-04-06T03:44:40;101647.63;;;17.94
77789;BMP280;66980;44.384;0.512;2023-04-06T03:47:05;101645.63;;;17.94
77789;BMP280;66980;44.384;0.512;2023-04-06T03:49:31;101647.44;;;17.86
77789;BMP280;66980;44.384;0.512;2023-04-06T03:51:56;101650.91;;;17.92
77789;BMP280;66980;44.384;0.512;2023-04-06T03:54:22;101656.88;;;17.91
77789;BMP280;66980;44.384;0.512;2023-04-06T03:56:47;101654.91;;;17.91
77789;BMP280;66980;44.384;0.512;2023-04-06T03:59:13;101665.91;;;17.91
77789;BMP280;66980;44.384;0.512;2023-04-06T04:01:38;101667.13;;;17.90
77789;BMP280;66980;44.384;0.512;2023-04-06T04:04:04;101661.91;;;17.87
77789;BMP280;66980;44.384;0.512;2023-04-06T04:06:30;101660.44;;;17.86
77789;BMP280;66980;44.384;0.512;2023-04-06T04:08:55;101666.13;;;17.88
77789;BMP280;66980;44.384;0.512;2023-04-06T04:11:21;101654.19;;;17.85
77789;BMP280;66980;44.384;0.512;2023-04-06T04:13:47;101657.69;;;17.86
77789;BMP280;66980;44.384;0.512;2023-04-06T04:16:12;101645.69;;;17.83
77789;BMP280;66980;44.384;0.512;2023-04-06T04:18:37;101647.75;;;17.83
77789;BMP280;66980;44.384;0.512;2023-04-06T04:21:03;101653.94;;;17.83
77789;BMP280;66980;44.384;0.512;2023-04-06T04:23:29;101645.69;;;17.83
77789;BMP280;66980;44.384;0.512;2023-04-06T04:25:54;101639.53;;;17.77
77789;BMP280;66980;44.384;0.512;2023-04-06T04:28:19;101641.00;;;17.78
77789;BMP280;66980;44.384;0.512;2023-04-06T04:30:46;101642.50;;;17.79
77789;BMP280;66980;44.384;0.512;2023-04-06T04:33:11;101644.75;;;17.81
77789;BMP280;66980;44.384;0.512;2023-04-06T04:35:37;101652.72;;;17.79
77789;BMP280;66980;44.384;0.512;2023-04-06T04:38:02;101641.53;;;17.77
77789;BMP280;66980;44.384;0.512;2023-04-06T04:40:28;101649.75;;;17.77
77789;BMP280;66980;44.384;0.512;2023-04-06T04:42:53;101653.50;;;17.73
77789;BMP280;66980;44.384;0.512;2023-04-06T04:45:19;101647.28;;;17.73
77789;BMP280;66980;44.384;0.512;2023-04-06T04:47:44;101656.97;;;17.74
77789;BMP280;66980;44.384;0.512;2023-04-06T04:50:10;101665.22;;;17.74
77789;BMP280;66980;44.384;0.512;2023-04-06T04:52:37;101669.25;;;17.73
77789;BMP280;66980;44.384;0.512;2023-04-06T04:55:02;101676.75;;;17.72
77789;BMP280;66980;44.384;0.512;2023-04-06T04:57:28;101673.00;;;17.70
77789;BMP280;66980;44.384;0.512;2023-04-06T04:59:54;101675.00;;;17.69
77789;BMP280;66980;44.384;0.512;2023-04-06T05:02:19;101685.97;;;17.69
77789;BMP280;66980;44.384;0.512;2023-04-06T05:04:45;101677.25;;;17.65
77789;BMP280;66980;44.384;0.512;2023-04-06T05:07:10;101685.25;;;17.69
77789;BMP280;66980;44.384;0.512;2023-04-06T05:09:36;101685.00;;;17.67
77789;BMP280;66980;44.384;0.512;2023-04-06T05:12:01;101690.50;;;17.67
77789;BMP280;66980;44.384;0.512;2023-04-06T05:14:27;101693.00;;;17.65
77789;BMP280;66980;44.384;0.512;2023-04-06T05:16:53;101711.72;;;17.66
77789;BMP280;66980;44.384;0.512;2023-04-06T05:19:19;101707.78;;;17.62
77789;BMP280;66980;44.384;0.512;2023-04-06T05:21:45;101718.72;;;17.67
77789;BMP280;66980;44.384;0.512;2023-04-06T05:24:11;101714.00;;;17.62
77789;BMP280;66980;44.384;0.512;2023-04-06T05:26:37;101721.03;;;17.52
77789;BMP280;66980;44.384;0.512;2023-04-06T05:29:03;101724.50;;;17.53
77789;BMP280;66980;44.384;0.512;2023-04-06T05:31:29;101719.03;;;17.53
77789;BMP280;66980;44.384;0.512;2023-04-06T05:33:55;101721.19;;;17.65
77789;BMP280;66980;44.384;0.512;2023-04-06T05:36:20;101722.84;;;17.85
77789;BMP280;66980;44.384;0.512;2023-04-06T05:38:46;101726.44;;;18.10
77789;BMP280;66980;44.384;0.512;2023-04-06T05:41:12;101731.28;;;18.29
77789;BMP280;66980;44.384;0.512;2023-04-06T05:43:37;101730.47;;;18.39
77789;BMP280;66980;44.384;0.512;2023-04-06T05:46:03;101723.19;;;18.42
77789;BMP280;66980;44.384;0.512;2023-04-06T05:48:28;101737.56;;;18.59
77789;BMP280;66980;44.384;0.512;2023-04-06T05:50:54;101727.75;;;18.64
77789;BMP280;66980;44.384;0.512;2023-04-06T05:53:20;101732.59;;;18.82
77789;BMP280;66980;44.384;0.512;2023-04-06T05:55:46;101739.56;;;19.08
77789;BMP280;66980;44.384;0.512;2023-04-06T05:58:12;101719.78;;;19.09
77789;BMP280;66980;44.384;0.512;2023-04-06T06:00:38;101713.50;;;19.33
77789;BMP280;66980;44.384;0.512;2023-04-06T06:03:03;101713.72;;;19.35
77789;BMP280;66980;44.384;0.512;2023-04-06T06:05:29;101741.50;;;19.56
77789;BMP280;66980;44.384;0.512;2023-04-06T06:07:55;101765.81;;;19.71
77789;BMP280;66980;44.384;0.512;2023-04-06T06:10:21;101762.91;;;19.82
77789;BMP280;66980;44.384;0.512;2023-04-06T06:12:46;101777.72;;;19.98
77789;BMP280;66980;44.384;0.512;2023-04-06T06:15:12;101780.06;;;20.07
77789;BMP280;66980;44.384;0.512;2023-04-06T06:17:38;101784.69;;;20.18
77789;BMP280;66980;44.384;0.512;2023-04-06T06:20:08;101779.31;;;20.26
77789;BMP280;66980;44.384;0.512;2023-04-06T06:22:34;101782.69;;;20.32
77789;BMP280;66980;44.384;0.512;2023-04-06T06:24:59;101776.56;;;20.39
77789;BMP280;66980;44.384;0.512;2023-04-06T06:27:25;101782.94;;;20.34
77789;BMP280;66980;44.384;0.512;2023-04-06T06:29:51;101783.88;;;20.36
77789;BMP280;66980;44.384;0.512;2023-04-06T06:32:17;101790.38;;;20.39
77789;BMP280;66980;44.384;0.512;2023-04-06T06:34:42;101778.59;;;20.38
77789;BMP280;66980;44.384;0.512;2023-04-06T06:37:08;101783.28;;;20.43
77789;BMP280;66980;44.384;0.512;2023-04-06T06:39:33;101789.94;;;20.48
77789;BMP280;66980;44.384;0.512;2023-04-06T06:41:59;101782.38;;;20.22
77789;BMP280;66980;44.384;0.512;2023-04-06T06:44:28;101791.19;;;19.83
77789;BMP280;66980;44.384;0.512;2023-04-06T06:46:53;101796.22;;;19.98
77789;BMP280;66980;44.384;0.512;2023-04-06T06:49:19;101776.19;;;19.97
77789;BMP280;66980;44.384;0.512;2023-04-06T06:51:45;101801.22;;;20.18
77789;BMP280;66980;44.384;0.512;2023-04-06T06:54:12;101790.41;;;20.20
77789;BMP280;66980;44.384;0.512;2023-04-06T06:56:38;101806.88;;;20.26
77789;BMP280;66980;44.384;0.512;2023-04-06T06:59:04;101800.06;;;20.27
77789;BMP280;66980;44.384;0.512;2023-04-06T07:01:32;101800.38;;;20.23
77789;BMP280;66980;44.384;0.512;2023-04-06T07:03:58;101793.38;;;20.22
77789;BMP280;66980;44.384;0.512;2023-04-06T07:06:23;101804.13;;;20.26
77789;BMP280;66980;44.384;0.512;2023-04-06T07:08:49;101798.38;;;20.24
77789;BMP280;66980;44.384;0.512;2023-04-06T07:11:14;101808.66;;;20.23
77789;BMP280;66980;44.384;0.512;2023-04-06T07:13:40;101804.13;;;20.26
77789;BMP280;66980;44.384;0.512;2023-04-06T07:16:05;101815.88;;;20.26
77789;BMP280;66980;44.384;0.512;2023-04-06T07:18:31;101815.16;;;20.26
77789;BMP280;66980;44.384;0.512;2023-04-06T07:20:56;101809.84;;;20.28
77789;BMP280;66980;44.384;0.512;2023-04-06T07:23:22;101817.50;;;20.35
77789;BMP280;66980;44.384;0.512;2023-04-06T07:25:47;101814.75;;;20.35
77789;BMP280;66980;44.384;0.512;2023-04-06T07:28:16;101807.97;;;20.36
77789;BMP280;66980;44.384;0.512;2023-04-06T07:30:42;101814.00;;;20.34
77789;BMP280;66980;44.384;0.512;2023-04-06T07:33:07;101813.78;;;20.32
77789;BMP280;66980;44.384;0.512;2023-04-06T07:35:33;101814.00;;;20.34
77789;BMP280;66980;44.384;0.512;2023-04-06T07:38:00;101816.75;;;20.34
77789;BMP280;66980;44.384;0.512;2023-04-06T07:40:25;101820.25;;;20.35
77789;BMP280;66980;44.384;0.512;2023-04-06T07:42:52;101816.53;;;20.32
77789;BMP280;66980;44.384;0.512;2023-04-06T07:45:17;101823.03;;;20.35
77789;BMP280;66980;44.384;0.512;2023-04-06T07:47:43;101812.09;;;20.29
77789;BMP280;66980;44.384;0.512;2023-04-06T07:50:09;101817.91;;;20.26
77789;BMP280;66980;44.384;0.512;2023-04-06T07:52:35;101817.41;;;20.08
77789;BMP280;66980;44.384;0.512;2023-04-06T08:59:43;101825.25;;;20.04
77789;BMP280;66980;44.384;0.512;2023-04-06T09:02:15;101836.81;;;20.16
77789;BMP280;66980;44.384;0.512;2023-04-06T09:04:43;101835.66;;;20.11
77789;BMP280;66980;44.384;0.512;2023-04-06T09:07:09;101840.84;;;20.15
77789;BMP280;66980;44.384;0.512;2023-04-06T09:09:35;101835.66;;;20.11
77789;BMP280;66980;44.384;0.512;2023-04-06T09:12:02;101843.41;;;20.13
77789;BMP280;66980;44.384;0.512;2023-04-06T09:14:36;101829.06;;;20.14
77789;BMP280;66980;44.384;0.512;2023-04-06T09:17:03;101826.63;;;20.11
77789;BMP280;66980;44.384;0.512;2023-04-06T09:19:29;101824.13;;;20.13
77789;BMP280;66980;44.384;0.512;2023-04-06T09:22:04;101827.38;;;20.11
77789;BMP280;66980;44.384;0.512;2023-04-06T09:24:43;101826.63;;;20.11
77789;BMP280;66980;44.384;0.512;2023-04-06T09:27:09;101823.13;;;20.10
77789;BMP280;66980;44.384;0.512;2023-04-06T09:29:35;101824.41;;;19.90
77789;BMP280;66980;44.384;0.512;2023-04-06T09:32:05;101826.72;;;19.67
77789;BMP280;66980;44.384;0.512;2023-04-06T09:34:32;101815.06;;;19.37
77789;BMP280;66980;44.384;0.512;2023-04-06T09:36:58;101815.28;;;19.39
77789;BMP280;66980;44.384;0.512;2023-04-06T09:39:24;101828.47;;;19.46
77789;BMP280;66980;44.384;0.512;2023-04-06T09:41:53;101833.75;;;19.44
77789;BMP280;66980;44.384;0.512;2023-04-06T09:44:19;101834.34;;;19.37
77789;BMP280;66980;44.384;0.512;2023-04-06T09:46:46;101833.53;;;19.42
77789;BMP280;66980;44.384;0.512;2023-04-06T09:49:12;101832.13;;;19.54
77789;BMP280;66980;44.384;0.512;2023-04-06T09:51:40;101826.34;;;19.58
77789;BMP280;66980;44.384;0.512;2023-04-06T09:54:07;101828.22;;;19.68
77789;BMP280;66980;44.384;0.512;2023-04-06T09:56:55;101828.22;;;19.68
77789;BMP280;66980;44.384;0.512;2023-04-06T10:00:05;101829.22;;;19.65
77789;BMP280;66980;44.384;0.512;2023-04-06T10:08:00;101822.72;;;19.68
77789;BMP280;66980;44.384;0.512;2023-04-06T10:10:28;101831.56;;;19.80
77789;BMP280;66980;44.384;0.512;2023-04-06T10:12:54;101829.78;;;19.83
77789;BMP280;66980;44.384;0.512;2023-04-06T10:15:21;101838.56;;;19.81
77789;BMP280;66980;44.384;0.512;2023-04-06T10:17:47;101828.22;;;19.87
77789;BMP280;66980;44.384;0.512;2023-04-06T10:20:22;101825.47;;;19.87
77789;BMP280;66980;44.384;0.512;2023-04-06T10:22:57;101837.28;;;20.01
77789;BMP280;66980;44.384;0.512;2023-04-06T10:25:29;101828.00;;;20.04
77789;BMP280;66980;44.384;0.512;2023-04-06T10:28:08;101831.94;;;20.09
77789;BMP280;66980;44.384;0.512;2023-04-06T10:30:34;101829.19;;;20.09
77789;BMP280;66980;44.384;0.512;2023-04-06T10:33:12;101828.56;;;20.16
77789;BMP280;66980;44.384;0.512;2023-04-06T10:35:38;101818.81;;;20.15
77789;BMP280;66980;44.384;0.512;2023-04-06T10:38:05;101837.84;;;20.32
77789;BMP280;66980;44.384;0.512;2023-04-06T10:40:30;101841.78;;;20.36
77789;BMP280;66980;44.384;0.512;2023-04-06T10:43:12;101840.44;;;20.43
77789;BMP280;66980;44.384;0.512;2023-04-06T10:45:38;101842.66;;;20.44
77789;BMP280;66980;44.384;0.512;2023-04-06T10:48:18;101834.41;;;20.44
77789;BMP280;66980;44.384;0.512;2023-04-06T10:50:50;101829.84;;;20.47
77789;BMP280;66980;44.384;0.512;2023-04-06T10:53:26;101841.31;;;20.51
77789;BMP280;66980;44.384;0.512;2023-04-06T10:55:54;101828.78;;;20.50
77789;BMP280;66980;44.384;0.512;2023-04-06T10:58:24;101823.81;;;20.49
77789;BMP280;66980;44.384;0.512;2023-04-06T11:00:50;101832.41;;;20.58
77789;BMP280;66980;44.384;0.512;2023-04-06T11:03:16;101835.16;;;20.58
77789;BMP280;66980;44.384;0.512;2023-04-06T11:05:46;101835.16;;;20.58
77789;BMP280;66980;44.384;0.512;2023-04-06T11:08:41;101836.69;;;20.73
77789;BMP280;66980;44.384;0.512;2023-04-06T11:11:11;101826.09;;;20.77
77789;BMP280;66980;44.384;0.512;2023-04-06T11:13:46;101823.75;;;20.81
77789;BMP280;66980;44.384;0.512;2023-04-06T11:16:19;101808.28;;;20.78
77789;BMP280;66980;44.384;0.512;2023-04-06T11:19:02;101825.69;;;20.86
77789;BMP280;66980;44.384;0.512;2023-04-06T11:21:39;101813.59;;;20.89
77789;BMP280;66980;44.384;0.512;2023-04-06T11:24:19;101816.03;;;20.92
77789;BMP280;66980;44.384;0.512;2023-04-06T11:26:49;101810.75;;;20.94
77789;BMP280;66980;44.384;0.512;2023-04-06T11:29:27;101815.38;;;21.00
77789;BMP280;66980;44.384;0.512;2023-04-06T11:31:58;101819.53;;;21.06
77789;BMP280;66980;44.384;0.512;2023-04-06T11:34:25;101814.44;;;21.10
77789;BMP280;66980;44.384;0.512;2023-04-06T11:36:56;101809.84;;;21.13
77789;BMP280;66980;44.384;0.512;2023-04-06T11:39:23;101820.28;;;21.20
77789;BMP280;66980;44.384;0.512;2023-04-06T11:41:52;101815.91;;;21.25
77789;BMP280;66980;44.384;0.512;2023-04-06T11:44:35;101818.56;;;21.30
77789;BMP280;66980;44.384;0.512;2023-04-06T11:47:02;101804.66;;;21.36
77789;BMP280;66980;44.384;0.512;2023-04-06T11:49:30;101809.31;;;21.41
77789;BMP280;66980;44.384;0.512;2023-04-06T11:51:56;101815.06;;;21.43
77789;BMP280;66980;44.384;0.512;2023-04-06T11:56:57;101804.06;;;21.51
77789;BMP280;66980;44.384;0.512;2023-04-06T11:59:22;101810.03;;;21.55
77789;BMP280;66980;44.384;0.512;2023-04-06T12:01:48;101804.59;;;21.62
77789;BMP280;66980;44.384;0.512;2023-04-06T12:04:14;101802.25;;;21.66
77789;BMP280;66980;44.384;0.512;2023-04-06T12:06:40;101780.25;;;21.61
77789;BMP280;66980;44.384;0.512;2023-04-06T12:09:05;101793.69;;;21.78
77789;BMP280;66980;44.384;0.512;2023-04-06T12:11:31;101793.69;;;21.78
77789;BMP280;66980;44.384;0.512;2023-04-06T12:13:56;101792.50;;;21.86
77789;BMP280;66980;44.384;0.512;2023-04-06T12:16:22;101785.34;;;21.91
77789;BMP280;66980;44.384;0.512;2023-04-06T12:18:47;101780.00;;;21.93
77789;BMP280;66980;44.384;0.512;2023-04-06T12:21:13;101786.16;;;21.99
77789;BMP280;66980;44.384;0.512;2023-04-06T12:23:39;101790.69;;;22.10
77789;BMP280;66980;44.384;0.512;2023-04-06T12:26:04;101782.38;;;22.10
77789;BMP280;66980;44.384;0.512;2023-04-06T12:28:30;101789.66;;;22.20
77789;BMP280;66980;44.384;0.512;2023-04-06T12:30:56;101786.78;;;22.26
77789;BMP280;66980;44.384;0.512;2023-04-06T12:33:21;101787.91;;;22.31
77789;BMP280;66980;44.384;0.512;2023-04-06T12:35:47;101793.84;;;22.35
77789;BMP280;66980;44.384;0.512;2023-04-06T12:38:12;101782.44;;;22.38
77789;BMP280;66980;44.384;0.512;2023-04-06T12:40:39;101779.53;;;22.44
77789;BMP280;66980;44.384;0.512;2023-04-06T12:43:05;101779.91;;;22.48
77789;BMP280;66980;44.384;0.512;2023-04-06T12:45:31;101769.22;;;22.52
77789;BMP280;66980;44.384;0.512;2023-04-06T12:47:57;101775.75;;;22.55
77789;BMP280;66980;44.384;0.512;2023-04-06T12:50:23;101771.53;;;22.61
77789;BMP280;66980;44.384;0.512;2023-04-06T12:52:48;101767.81;;;22.59
77789;BMP280;66980;44.384;0.512;2023-04-06T12:55:14;101775.28;;;22.71
77789;BMP280;66980;44.384;0.512;2023-04-06T12:57:40;101766.28;;;22.79
77789;BMP280;66980;44.384;0.512;2023-04-06T13:00:07;101759.31;;;22.85
77789;BMP280;66980;44.384;0.512;2023-04-06T13:02:33;101751.34;;;22.82
77789;BMP280;66980;44.384;0.512;2023-04-06T13:04:59;101754.34;;;22.91
77789;BMP280;66980;44.384;0.512;2023-04-06T13:07:25;101748.66;;;22.97
77789;BMP280;66980;44.384;0.512;2023-04-06T13:09:51;101747.53;;;23.00
77789;BMP280;66980;44.384;0.512;2023-04-06T13:12:18;101753.47;;;23.04
77789;BMP280;66980;44.384;0.512;2023-04-06T13:14:44;101752.75;;;23.11
77789;BMP280;66980;44.384;0.512;2023-04-06T13:17:16;101750.16;;;23.13
77789;BMP280;66980;44.384;0.512;2023-04-06T13:19:42;101747.78;;;23.17
77789;BMP280;66980;44.384;0.512;2023-04-06T13:22:08;101750.59;;;23.25
77789;BMP280;66980;44.384;0.512;2023-04-06T13:24:33;101746.69;;;23.28
77789;BMP280;66980;44.384;0.512;2023-04-06T13:26:59;101743.59;;;23.32
77789;BMP280;66980;44.384;0.512;2023-04-06T13:29:26;101744.91;;;23.38
77789;BMP280;66980;44.384;0.512;2023-04-06T13:31:52;101746.75;;;23.43
77789;BMP280;66980;44.384;0.512;2023-04-06T13:34:17;101748.09;;;23.50
77789;BMP280;66980;44.384;0.512;2023-04-06T13:36:43;101735.66;;;23.51
77789;BMP280;66980;44.384;0.512;2023-04-06T13:39:09;101741.59;;;23.55
77789;BMP280;66980;44.384;0.512;2023-04-06T13:41:34;101740.31;;;23.64
77789;BMP280;66980;44.384;0.512;2023-04-06T13:44:00;101734.59;;;23.69
77789;BMP280;66980;44.384;0.512;2023-04-06T13:46:26;101743.47;;;23.75
77789;BMP280;66980;44.384;0.512;2023-04-06T13:48:52;101727.59;;;23.76
77789;BMP280;66980;44.384;0.512;2023-04-06T13:51:18;101720.19;;;23.79
77789;BMP280;66980;44.384;0.512;2023-04-06T13:53:44;101720.34;;;23.81
77789;BMP280;66980;44.384;0.512;2023-04-06T13:56:09;101718.16;;;23.87
77789;BMP280;66980;44.384;0.512;2023-04-06T13:58:35;101728.88;;;23.98
77789;BMP280;66980;44.384;0.512;2023-04-06T14:01:05;101724.03;;;24.06
77789;BMP280;66980;44.384;0.512;2023-04-06T14:03:31;101715.56;;;24.04
77789;BMP280;66980;44.384;0.512;2023-04-06T14:05:57;101720.91;;;24.10
77789;BMP280;66980;44.384;0.512;2023-04-06T14:08:22;101711.31;;;24.11
77789;BMP280;66980;44.384;0.512;2023-04-06T14:10:48;101711.66;;;24.15
77789;BMP280;66980;44.384;0.512;2023-04-06T14:13:13;101711.66;;;24.07
77789;BMP280;66980;44.384;0.512;2023-04-06T14:15:39;101694.66;;;23.34
77789;BMP280;66980;44.384;0.512;2023-04-06T14:18:04;101697.25;;;22.81
77789;BMP280;66980;44.384;0.512;2023-04-06T14:20:31;101708.75;;;22.56
77789;BMP280;66980;44.384;0.512;2023-04-06T14:22:59;101708.72;;;22.85
77789;BMP280;66980;44.384;0.512;2023-04-06T14:25:25;101697.59;;;23.29
77789;BMP280;66980;44.384;0.512;2023-04-06T14:27:51;101703.16;;;23.59
77789;BMP280;66980;44.384;0.512;2023-04-06T14:30:16;101696.16;;;23.81
77789;BMP280;66980;44.384;0.512;2023-04-06T14:32:42;101697.06;;;23.99
77789;BMP280;66980;44.384;0.512;2023-04-06T14:35:08;101695.94;;;24.10
77789;BMP280;66980;44.384;0.512;2023-04-06T14:37:33;101707.41;;;24.21
77789;BMP280;66980;44.384;0.512;2023-04-06T14:39:59;101700.91;;;24.26
77789;BMP280;66980;44.384;0.512;2023-04-06T14:42:25;101699.22;;;24.31
77789;BMP280;66980;44.384;0.512;2023-04-06T14:44:50;101705.31;;;24.37
77789;BMP280;66980;44.384;0.512;2023-04-06T14:47:16;101706.59;;;24.44
77789;BMP280;66980;44.384;0.512;2023-04-06T14:49:46;101701.59;;;24.42
77789;BMP280;66980;44.384;0.512;2023-04-06T14:52:12;101703.44;;;24.47
77789;BMP280;66980;44.384;0.512;2023-04-06T14:54:38;101702.50;;;24.52
77789;BMP280;66980;44.384;0.512;2023-04-06T14:57:03;101701.75;;;24.52
77789;BMP280;66980;44.384;0.512;2023-04-06T14:59:29;101700.66;;;24.55
77789;BMP280;66980;44.384;0.512;2023-04-06T15:01:55;101693.22;;;24.58
77789;BMP280;66980;44.384;0.512;2023-04-06T15:04:20;101696.53;;;24.64
77789;BMP280;66980;44.384;0.512;2023-04-06T15:06:46;101695.97;;;24.65